createdAt,value
2022-11-06T00:01:23.869Z,99.90
2022-11-06T00:03:56.204Z,99.90
2022-11-06T00:06:39.257Z,99.90
2022-11-06T00:09:15.506Z,99.90
2022-11-06T00:11:55.377Z,99.90
2022-11-06T00:14:25.573Z,99.90
2022-11-06T00:16:55.686Z,99.90
2022-11-06T00:19:25.798Z,99.90
2022-11-06T00:21:55.948Z,99.90
2022-11-06T00:24:26.109Z,99.90
2022-11-06T00:26:58.818Z,99.90
2022-11-06T00:29:29.000Z,99.90
2022-11-06T00:31:59.011Z,99.90
2022-11-06T00:34:29.261Z,99.90
2022-11-06T00:36:59.352Z,99.90
2022-11-06T00:39:29.578Z,99.90
2022-11-06T00:42:02.314Z,99.90
2022-11-06T00:44:46.423Z,99.90
2022-11-06T00:47:19.615Z,99.90
2022-11-06T00:49:52.881Z,99.90
2022-11-06T00:52:25.272Z,99.90
2022-11-06T00:54:55.364Z,99.90
2022-11-06T00:57:35.569Z,99.90
2022-11-06T01:00:07.402Z,99.90
2022-11-06T01:02:37.596Z,99.90
2022-11-06T01:05:09.544Z,99.90
2022-11-06T01:07:48.487Z,99.90
2022-11-06T01:10:18.612Z,99.90
2022-11-06T01:12:54.337Z,99.90
2022-11-06T01:15:24.469Z,99.90
2022-11-06T01:17:54.507Z,99.90
2022-11-06T01:20:24.605Z,99.90
2022-11-06T01:22:54.707Z,99.90
2022-11-06T01:25:24.806Z,99.90
2022-11-06T01:27:57.491Z,99.90
2022-11-06T01:30:30.022Z,99.90
2022-11-06T01:33:00.056Z,99.90
2022-11-06T01:35:33.358Z,99.90
2022-11-06T01:38:03.436Z,99.90
2022-11-06T01:40:33.598Z,99.90
2022-11-06T01:43:06.286Z,99.90
2022-11-06T01:45:41.431Z,99.90
2022-11-06T01:48:12.587Z,99.90
2022-11-06T01:50:49.696Z,99.90
2022-11-06T01:53:20.783Z,99.90
2022-11-06T01:55:55.754Z,99.90
2022-11-06T01:58:35.036Z,99.90
2022-11-06T02:01:05.834Z,99.90
2022-11-06T02:03:39.901Z,99.90
2022-11-06T02:06:14.467Z,99.90
2022-11-06T02:08:56.922Z,99.90
2022-11-06T02:11:31.144Z,99.90
2022-11-06T02:14:16.824Z,99.90
2022-11-06T02:16:59.774Z,99.90
2022-11-06T02:20:01.861Z,99.90
2022-11-06T02:23:08.440Z,99.90
2022-11-06T02:25:51.574Z,99.90
2022-11-06T02:28:35.399Z,99.90
2022-11-06T02:31:16.285Z,99.90
2022-11-06T02:33:54.695Z,99.90
2022-11-06T02:36:33.000Z,99.90
2022-11-06T02:39:10.713Z,99.90
2022-11-06T02:41:47.133Z,99.90
2022-11-06T02:44:26.890Z,99.90
2022-11-06T02:47:01.886Z,99.90
2022-11-06T02:49:41.152Z,99.90
2022-11-06T02:52:21.562Z,99.90
2022-11-06T02:55:00.706Z,99.90
2022-11-06T02:57:40.518Z,99.90
2022-11-06T03:00:17.813Z,99.90
2022-11-06T03:03:00.482Z,99.90
2022-11-06T03:05:37.428Z,99.90
2022-11-06T03:08:19.100Z,99.90
2022-11-06T03:11:02.328Z,99.90
2022-11-06T03:13:50.639Z,99.90
2022-11-06T03:16:33.479Z,99.90
2022-11-06T03:19:10.658Z,99.90
2022-11-06T03:21:55.473Z,99.90
2022-11-06T03:24:36.458Z,99.90
2022-11-06T03:27:17.289Z,99.90
2022-11-06T03:29:53.970Z,99.90
2022-11-06T03:32:35.835Z,99.90
2022-11-06T03:35:15.955Z,99.90
2022-11-06T03:37:52.052Z,99.90
2022-11-06T03:40:26.958Z,99.90
2022-11-06T03:43:03.293Z,99.90
2022-11-06T03:45:38.740Z,99.90
2022-11-06T03:48:21.599Z,99.90
2022-11-06T03:51:06.190Z,99.90
2022-11-06T03:53:45.473Z,99.90
2022-11-06T03:56:24.148Z,99.90
2022-11-06T03:58:58.995Z,99.90
2022-11-06T04:01:42.666Z,99.90
2022-11-06T04:04:27.158Z,99.90
2022-11-06T04:07:02.934Z,99.90
2022-11-06T04:09:50.494Z,99.90
2022-11-06T04:12:40.254Z,99.90
2022-11-06T04:15:19.921Z,99.90
2022-11-06T04:17:52.707Z,99.90
2022-11-06T04:20:49.350Z,99.90
2022-11-06T04:23:37.849Z,99.90
2022-11-06T04:26:32.907Z,99.90
2022-11-06T04:29:15.318Z,99.90
2022-11-06T04:31:58.340Z,99.90
2022-11-06T04:34:45.550Z,99.90
2022-11-06T04:37:28.090Z,99.90
2022-11-06T04:40:13.293Z,99.90
2022-11-06T04:42:51.988Z,99.90
2022-11-06T04:45:30.946Z,99.90
2022-11-06T04:48:02.864Z,99.90
2022-11-06T04:50:42.828Z,99.90
2022-11-06T04:53:19.266Z,99.90
2022-11-06T04:55:51.673Z,99.90
2022-11-06T04:58:22.099Z,99.90
2022-11-06T05:00:56.748Z,99.90
2022-11-06T05:03:26.919Z,99.90
2022-11-06T05:05:57.053Z,99.90
2022-11-06T05:08:29.709Z,99.90
2022-11-06T05:10:59.819Z,99.90
2022-11-06T05:13:32.271Z,99.90
2022-11-06T05:16:05.502Z,99.90
2022-11-06T05:18:38.209Z,99.90
2022-11-06T05:21:21.433Z,99.90
2022-11-06T05:23:54.123Z,99.90
2022-11-06T05:26:24.400Z,99.90
2022-11-06T05:28:54.693Z,99.90
2022-11-06T05:31:28.882Z,99.90
2022-11-06T05:33:58.946Z,99.90
2022-11-06T05:36:31.123Z,99.90
2022-11-06T05:39:03.826Z,99.90
2022-11-06T05:41:34.126Z,99.90
2022-11-06T05:44:04.296Z,99.90
2022-11-06T05:46:50.372Z,99.90
2022-11-06T05:49:21.327Z,99.90
2022-11-06T05:51:54.518Z,99.90
2022-11-06T05:54:27.375Z,99.90
2022-11-06T05:56:57.491Z,99.90
2022-11-06T05:59:28.489Z,99.90
2022-11-06T06:01:59.613Z,99.90
2022-11-06T06:04:32.580Z,99.90
2022-11-06T06:07:02.694Z,99.90
2022-11-06T06:09:35.932Z,99.90
2022-11-06T06:12:06.968Z,99.90
2022-11-06T06:14:39.816Z,99.90
2022-11-06T06:17:10.282Z,99.90
2022-11-06T06:19:40.330Z,99.90
2022-11-06T06:22:11.028Z,99.90
2022-11-06T06:24:43.892Z,99.90
2022-11-06T06:27:20.010Z,99.90
2022-11-06T06:29:50.068Z,99.90
2022-11-06T06:32:20.183Z,99.90
2022-11-06T06:34:50.250Z,99.90
2022-11-06T06:37:20.455Z,99.90
2022-11-06T06:39:53.202Z,99.90
2022-11-06T06:42:30.263Z,99.90
2022-11-06T06:45:01.525Z,99.90
2022-11-06T06:47:37.542Z,99.90
2022-11-06T06:50:08.882Z,99.90
2022-11-06T06:52:39.008Z,99.90
2022-11-06T06:55:12.620Z,99.90
2022-11-06T06:57:48.326Z,99.90
2022-11-06T07:00:19.269Z,99.90
2022-11-06T07:02:49.345Z,99.90
2022-11-06T07:05:19.654Z,99.90
2022-11-06T07:07:49.780Z,99.90
2022-11-06T07:10:24.606Z,99.90
2022-11-06T07:12:57.091Z,99.90
2022-11-06T07:15:27.194Z,99.90
2022-11-06T07:17:57.303Z,99.90
2022-11-06T07:20:29.689Z,99.90
2022-11-06T07:22:59.898Z,99.90
2022-11-06T07:25:35.951Z,99.90
2022-11-06T07:28:07.901Z,99.90
2022-11-06T07:30:39.059Z,99.90
2022-11-06T07:33:09.628Z,99.90
2022-11-06T07:35:39.781Z,99.90
2022-11-06T07:38:22.662Z,99.90
2022-11-06T07:40:55.353Z,99.90
2022-11-06T07:43:26.858Z,99.90
2022-11-06T07:45:59.523Z,99.90
2022-11-06T07:48:29.861Z,99.90
2022-11-06T07:51:00.795Z,99.90
2022-11-06T07:53:31.069Z,99.90
2022-11-06T07:56:04.071Z,99.90
2022-11-06T07:58:35.928Z,99.90
2022-11-06T08:01:06.571Z,35.10
2022-11-06T08:03:39.272Z,29.60
2022-11-06T08:06:10.075Z,47.00
2022-11-06T08:08:40.290Z,72.10
2022-11-06T08:11:14.815Z,99.90
2022-11-06T08:13:47.991Z,93.90
2022-11-06T08:16:18.673Z,29.80
2022-11-06T08:18:48.822Z,13.10
2022-11-06T08:21:18.894Z,1.00
2022-11-06T08:23:49.032Z,1.00
2022-11-06T08:26:21.930Z,1.00
2022-11-06T08:28:52.084Z,1.00
2022-11-06T08:31:29.920Z,1.00
2022-11-06T08:34:00.127Z,1.00
2022-11-06T08:36:30.412Z,99.90
2022-11-06T08:39:09.138Z,1.00
2022-11-06T08:41:45.058Z,1.00
2022-11-06T08:44:18.070Z,1.00
2022-11-06T08:46:51.871Z,1.00
2022-11-06T08:49:25.212Z,99.90
2022-11-06T08:51:55.373Z,1.00
2022-11-06T08:54:25.531Z,99.90
2022-11-06T08:57:04.507Z,99.90
2022-11-06T08:59:38.960Z,1.00
2022-11-06T09:02:11.941Z,1.00
2022-11-06T09:04:42.185Z,1.00
2022-11-06T09:07:12.497Z,99.90
2022-11-06T09:09:42.607Z,99.90
2022-11-06T09:12:17.864Z,1.00
2022-11-06T09:14:47.983Z,99.90
2022-11-06T09:17:23.225Z,99.60
2022-11-06T09:20:05.677Z,1.00
2022-11-06T09:22:35.774Z,99.90
2022-11-06T09:25:06.190Z,99.90
2022-11-06T09:27:45.531Z,1.00
2022-11-06T09:30:19.662Z,1.00
2022-11-06T09:32:58.853Z,1.00
2022-11-06T09:35:31.515Z,22.00
2022-11-06T09:38:06.074Z,36.60
2022-11-06T09:40:42.916Z,22.10
2022-11-06T09:46:29.087Z,1.00
2022-11-06T09:49:08.544Z,1.00
2022-11-06T09:51:44.823Z,1.00
2022-11-06T09:54:23.450Z,99.90
2022-11-06T09:57:03.827Z,1.00
2022-11-06T09:59:42.147Z,1.00
2022-11-06T10:02:33.192Z,99.90
2022-11-06T10:05:16.394Z,99.90
2022-11-06T10:07:52.213Z,99.90
2022-11-06T10:10:33.558Z,1.00
2022-11-06T10:13:33.342Z,32.00
2022-11-06T10:16:20.557Z,1.00
2022-11-06T10:19:03.762Z,99.90
2022-11-06T10:21:51.129Z,1.00
2022-11-06T10:24:33.229Z,1.00
2022-11-06T10:27:07.553Z,1.00
2022-11-06T10:30:13.050Z,1.00
2022-11-06T10:33:14.307Z,18.70
2022-11-06T10:35:55.999Z,27.50
2022-11-06T10:38:36.335Z,40.30
2022-11-06T10:41:24.122Z,54.50
2022-11-06T10:44:04.274Z,82.80
2022-11-06T10:46:41.333Z,87.70
2022-11-06T10:49:28.822Z,92.00
2022-11-06T10:52:28.714Z,90.30
2022-11-06T10:55:31.992Z,80.90
2022-11-06T10:58:14.020Z,75.10
2022-11-06T11:00:44.933Z,87.50
2022-11-06T11:03:27.354Z,98.30
2022-11-06T11:06:00.457Z,99.90
2022-11-06T11:08:43.446Z,99.90
2022-11-06T11:11:27.273Z,99.90
2022-11-06T11:14:20.326Z,99.90
2022-11-06T11:16:51.975Z,99.90
2022-11-06T11:19:37.426Z,99.90
2022-11-06T11:22:28.976Z,99.90
2022-11-06T11:25:05.788Z,99.90
2022-11-06T11:27:47.517Z,99.90
2022-11-06T11:30:29.596Z,99.00
2022-11-06T11:33:00.674Z,95.30
2022-11-06T11:35:35.603Z,97.60
2022-11-06T11:38:22.937Z,85.90
2022-11-06T11:40:53.323Z,53.60
2022-11-06T11:43:29.354Z,38.10
2022-11-06T11:46:17.674Z,1.00
2022-11-06T11:48:50.288Z,1.00
2022-11-06T11:51:38.626Z,1.00
2022-11-06T11:54:26.221Z,1.00
2022-11-06T11:57:05.205Z,1.00
2022-11-06T11:59:47.078Z,1.00
2022-11-06T12:02:27.298Z,1.00
2022-11-06T12:05:03.945Z,1.00
2022-11-06T12:07:45.966Z,1.00
2022-11-06T12:10:30.177Z,1.00
2022-11-06T12:13:03.303Z,1.00
2022-11-06T12:15:47.199Z,1.00
2022-11-06T12:18:22.897Z,1.00
2022-11-06T12:20:58.882Z,1.00
2022-11-06T12:23:36.917Z,1.00
2022-11-06T12:26:21.342Z,1.00
2022-11-06T12:29:05.370Z,1.00
2022-11-06T12:31:44.667Z,1.00
2022-11-06T12:34:26.171Z,1.00
2022-11-06T12:37:22.827Z,1.00
2022-11-06T12:40:05.625Z,1.00
2022-11-06T12:42:42.986Z,1.00
2022-11-06T12:45:16.181Z,1.00
2022-11-06T12:48:01.535Z,1.00
2022-11-06T12:50:44.337Z,1.00
2022-11-06T12:53:50.513Z,1.00
2022-11-06T12:56:36.499Z,1.00
2022-11-06T12:59:34.239Z,1.00
2022-11-06T13:02:25.213Z,1.00
2022-11-06T13:05:15.192Z,1.00
2022-11-06T13:08:15.133Z,1.00
2022-11-06T13:11:09.573Z,1.00
2022-11-06T13:14:17.348Z,1.00
2022-11-06T13:17:06.222Z,1.00
2022-11-06T13:19:43.474Z,1.00
2022-11-06T13:22:37.118Z,1.00
2022-11-06T13:25:16.852Z,1.00
2022-11-06T13:28:01.573Z,1.00
2022-11-06T13:30:41.998Z,1.00
2022-11-06T13:33:26.004Z,1.00
2022-11-06T13:35:59.500Z,1.00
2022-11-06T13:38:40.177Z,1.00
2022-11-06T13:41:22.072Z,1.00
2022-11-06T13:43:59.529Z,1.00
2022-11-06T13:46:49.959Z,1.00
2022-11-06T13:49:33.879Z,1.00
2022-11-06T13:52:11.891Z,11.80
2022-11-06T13:55:05.286Z,1.00
2022-11-06T13:58:12.258Z,1.00
2022-11-06T14:01:06.376Z,1.00
2022-11-06T14:04:13.929Z,1.00
2022-11-06T14:06:48.903Z,1.00
2022-11-06T14:09:25.979Z,1.00
2022-11-06T14:12:00.216Z,1.00
2022-11-06T14:14:34.248Z,1.00
2022-11-06T14:17:24.980Z,1.00
2022-11-06T14:20:29.748Z,1.00
2022-11-06T14:23:50.526Z,1.00
2022-11-06T14:26:42.231Z,8.20
2022-11-06T14:30:14.713Z,8.80
2022-11-06T14:32:52.747Z,22.40
2022-11-06T14:35:58.259Z,29.70
2022-11-06T14:38:49.075Z,40.90
2022-11-06T14:41:59.750Z,20.90
2022-11-06T14:44:51.014Z,17.10
2022-11-06T14:47:37.452Z,8.10
2022-11-06T14:50:28.347Z,1.00
2022-11-06T14:53:05.909Z,1.00
2022-11-06T14:55:44.154Z,2.80
2022-11-06T14:58:25.360Z,1.00
2022-11-06T15:01:06.069Z,1.00
2022-11-06T15:03:48.572Z,7.20
2022-11-06T15:06:53.489Z,19.30
2022-11-06T15:09:50.394Z,36.20
2022-11-06T15:12:20.501Z,47.50
2022-11-06T15:15:19.743Z,75.70
2022-11-06T15:17:53.774Z,65.50
2022-11-06T15:20:33.819Z,76.00
2022-11-06T15:23:25.306Z,77.60
2022-11-06T15:26:09.905Z,68.10
2022-11-06T15:28:49.165Z,84.80
2022-11-06T15:31:23.434Z,97.30
2022-11-06T15:34:03.470Z,97.90
2022-11-06T15:36:43.731Z,97.60
2022-11-06T15:39:36.279Z,90.00
2022-11-06T15:42:11.819Z,95.00
2022-11-06T15:44:44.721Z,99.90
2022-11-06T15:47:29.031Z,99.90
2022-11-06T15:50:19.474Z,99.90
2022-11-06T15:52:51.729Z,99.90
2022-11-06T15:55:31.449Z,99.90
2022-11-06T15:58:40.326Z,99.90
2022-11-06T16:01:14.706Z,99.90
2022-11-06T16:04:03.810Z,99.90
2022-11-06T16:06:44.670Z,99.90
2022-11-06T16:09:21.742Z,99.90
2022-11-06T16:11:54.741Z,99.90
2022-11-06T16:14:27.805Z,99.90
2022-11-06T16:17:00.086Z,99.90
2022-11-06T16:19:36.298Z,99.90
2022-11-06T16:22:16.042Z,99.90
2022-11-06T16:25:01.356Z,99.90
2022-11-06T16:27:40.270Z,99.90
2022-11-06T16:30:25.642Z,99.90
2022-11-06T16:32:56.425Z,99.90
2022-11-06T16:35:40.836Z,99.90
2022-11-06T16:38:47.818Z,99.90
2022-11-06T16:41:31.718Z,99.90
2022-11-06T16:44:30.760Z,99.90
2022-11-06T16:47:19.928Z,99.90
2022-11-06T16:49:54.406Z,99.90
2022-11-06T16:52:30.393Z,99.90
2022-11-06T16:55:13.799Z,99.90
2022-11-06T16:57:53.189Z,99.90
2022-11-06T17:00:32.183Z,99.90
2022-11-06T17:03:11.601Z,99.90
2022-11-06T17:05:44.669Z,99.90
2022-11-06T17:08:30.049Z,99.90
2022-11-06T17:11:01.068Z,99.90
2022-11-06T17:13:35.573Z,99.90
2022-11-06T17:16:15.101Z,99.90
2022-11-06T17:18:50.895Z,99.90
2022-11-06T17:21:24.508Z,99.90
2022-11-06T17:24:07.637Z,99.90
2022-11-06T17:26:50.322Z,99.90
2022-11-06T17:29:22.433Z,99.90
2022-11-06T17:31:52.724Z,99.90
2022-11-06T17:34:32.578Z,99.90
2022-11-06T17:37:05.017Z,99.90
2022-11-06T17:39:35.607Z,99.90
2022-11-06T17:42:05.687Z,99.90
2022-11-06T17:44:38.955Z,99.90
2022-11-06T17:47:09.400Z,99.90
2022-11-06T17:49:51.392Z,99.90
2022-11-06T17:52:21.514Z,99.90
2022-11-06T17:54:56.960Z,99.90
2022-11-06T17:57:32.693Z,99.90
2022-11-06T18:00:02.929Z,99.90
2022-11-06T18:02:59.043Z,99.90
2022-11-06T18:05:38.291Z,99.90
2022-11-06T18:08:15.249Z,99.90
2022-11-06T18:10:45.770Z,89.20
2022-11-06T18:13:18.885Z,73.00
2022-11-06T18:15:49.067Z,57.30
2022-11-06T18:18:23.208Z,50.20
2022-11-06T18:20:58.856Z,39.70
2022-11-06T18:23:31.559Z,47.50
2022-11-06T18:26:02.271Z,46.10
2022-11-06T18:28:32.390Z,33.10
2022-11-06T18:31:04.821Z,40.30
2022-11-06T18:33:35.539Z,40.00
2022-11-06T18:36:13.565Z,44.90
2022-11-06T18:38:44.371Z,37.10
2022-11-06T18:41:19.812Z,44.70
2022-11-06T18:43:59.046Z,46.80
2022-11-06T18:46:30.346Z,45.30
2022-11-06T18:49:01.205Z,51.70
2022-11-06T18:51:43.329Z,53.00
2022-11-06T18:54:16.709Z,56.30
2022-11-06T18:56:46.876Z,66.90
2022-11-06T18:59:20.786Z,70.70
2022-11-06T19:01:51.084Z,85.90
2022-11-06T19:04:23.689Z,91.70
2022-11-06T19:07:03.894Z,98.10
2022-11-06T19:09:33.941Z,99.90
2022-11-06T19:12:04.024Z,99.90
2022-11-06T19:14:36.717Z,99.90
2022-11-06T19:17:06.997Z,99.90
2022-11-06T19:19:37.025Z,99.90
2022-11-06T19:22:12.041Z,99.90
2022-11-06T19:24:45.230Z,99.90
2022-11-06T19:27:15.338Z,99.90
2022-11-06T19:29:45.544Z,99.90
2022-11-06T19:32:15.664Z,99.90
2022-11-06T19:34:45.775Z,99.90
2022-11-06T19:37:20.784Z,99.90
2022-11-06T19:39:50.968Z,99.90
2022-11-06T19:42:21.097Z,99.90
2022-11-06T19:44:55.119Z,99.90
2022-11-06T19:47:25.342Z,99.90
2022-11-06T19:49:56.158Z,99.90
2022-11-06T19:52:41.791Z,99.90
2022-11-06T19:55:24.716Z,99.90
2022-11-06T19:58:03.920Z,99.90
2022-11-06T20:00:34.003Z,99.90
2022-11-06T20:03:09.861Z,99.90
2022-11-06T20:05:40.060Z,99.90
2022-11-06T20:08:16.089Z,99.90
2022-11-06T20:10:56.970Z,99.90
2022-11-06T20:13:27.418Z,99.90
2022-11-06T20:16:02.832Z,99.90
2022-11-06T20:18:37.925Z,99.90
2022-11-06T20:21:11.169Z,99.90
2022-11-06T20:23:43.877Z,99.90
2022-11-06T20:26:16.963Z,99.90
2022-11-06T20:29:00.361Z,99.90
2022-11-06T20:31:34.602Z,99.90
2022-11-06T20:34:05.198Z,99.90
2022-11-06T20:36:42.299Z,99.90
2022-11-06T20:39:17.639Z,99.90
2022-11-06T20:41:48.631Z,99.90
2022-11-06T20:44:18.991Z,99.90
2022-11-06T20:46:52.157Z,99.90
2022-11-06T20:49:22.560Z,99.90
2022-11-06T20:52:13.261Z,99.90
2022-11-06T20:54:47.955Z,99.90
2022-11-06T20:57:20.867Z,99.90
2022-11-06T20:59:51.436Z,99.90
2022-11-06T21:02:28.858Z,99.90
2022-11-06T21:04:59.122Z,99.90
2022-11-06T21:07:30.092Z,99.90
2022-11-06T21:10:13.701Z,99.90
2022-11-06T21:12:49.405Z,99.90
2022-11-06T21:15:19.687Z,99.90
2022-11-06T21:17:49.783Z,99.90
2022-11-06T21:20:22.931Z,99.90
2022-11-06T21:22:59.403Z,99.90
2022-11-06T21:25:32.269Z,99.90
2022-11-06T21:28:02.316Z,99.90
2022-11-06T21:30:32.405Z,99.90
2022-11-06T21:33:11.844Z,99.90
2022-11-06T21:35:45.402Z,99.90
2022-11-06T21:38:15.471Z,99.90
2022-11-06T21:40:48.334Z,99.90
2022-11-06T21:43:18.538Z,99.90
2022-11-06T21:45:51.002Z,99.90
2022-11-06T21:48:44.807Z,99.90
2022-11-06T21:51:16.942Z,99.90
2022-11-06T21:53:59.852Z,99.90
2022-11-06T21:56:39.945Z,99.90
2022-11-06T21:59:13.831Z,99.90
2022-11-06T22:01:44.939Z,99.90
2022-11-06T22:04:16.598Z,99.90
2022-11-06T22:06:49.895Z,99.90
2022-11-06T22:09:24.801Z,99.90
2022-11-06T22:12:08.247Z,99.90
2022-11-06T22:14:41.370Z,99.90
2022-11-06T22:17:11.438Z,99.90
2022-11-06T22:19:41.483Z,99.90
2022-11-06T22:22:17.654Z,99.90
2022-11-06T22:24:48.886Z,99.90
2022-11-06T22:27:40.677Z,99.90
2022-11-06T22:30:16.224Z,99.90
2022-11-06T22:32:48.996Z,99.90
2022-11-06T22:35:19.355Z,99.90
2022-11-06T22:37:49.485Z,99.90
2022-11-06T22:40:22.397Z,99.90
2022-11-06T22:42:59.924Z,99.90
2022-11-06T22:45:30.193Z,99.90
2022-11-06T22:48:03.188Z,99.90
2022-11-06T22:50:33.258Z,99.90
2022-11-06T22:53:14.837Z,99.90
2022-11-06T22:55:45.423Z,99.90
2022-11-06T22:58:20.656Z,99.90
2022-11-06T23:00:55.124Z,99.90
2022-11-06T23:03:31.066Z,99.90
2022-11-06T23:06:09.110Z,99.90
2022-11-06T23:08:46.978Z,99.90
2022-11-06T23:11:19.881Z,99.90
2022-11-06T23:13:53.261Z,99.90
2022-11-06T23:16:39.598Z,99.90
2022-11-06T23:19:10.522Z,99.90
2022-11-06T23:21:41.207Z,99.90
2022-11-06T23:24:12.070Z,99.90
2022-11-06T23:26:51.140Z,99.90
2022-11-06T23:29:24.387Z,99.90
2022-11-06T23:31:54.498Z,99.90
2022-11-06T23:34:25.658Z,99.90
2022-11-06T23:36:59.474Z,99.90
2022-11-06T23:39:29.610Z,99.90
2022-11-06T23:42:08.603Z,99.90
2022-11-06T23:44:54.312Z,99.90
2022-11-06T23:47:24.424Z,99.90
2022-11-06T23:49:54.983Z,99.90
2022-11-06T23:52:34.428Z,99.90
2022-11-06T23:55:04.655Z,99.90
2022-11-06T23:57:37.363Z,99.90
